首页
METAR-TAF:

METAR-TAF

机场 :

曼哈頓, 堪薩斯州, 美国

纬度: 39-08-07N, 经度: 096-40-40W, 海拔: 321米

当前天气观测

该预报发布于42分钟前的08:52 UTC
风速10节,风向北转东北
温度 1°C
湿度 75%
气压 1023 hPa
能見度: 16.1公里
阴天层高于1700英尺

METAR: KMHK 220852Z AUTO 03010KT 10SM OVC017 01/M03 A3022 RMK AO2 SLP243 60003 T00111028 53000

时间: 03:34 (09:34 UTC)

预报

该预报发布于4小时和9分钟前的05:25 UTC
预报有效从22日的 06点(UTC)到 23日的 06点(UTC)
风速10节,风向北转东北
能見度: 10公里
阴天层高于1800英尺
从 22日的 1500点(UTC)
风速6节,风向北转东北
能見度: 10公里
多云层高于3500英尺
从 22日的 2000点(UTC)
风速6节,风向
能見度: 10公里
多云层高于3000英尺
附近有阵雨
从 23日的 0000点(UTC)
风速4节,风向多变
能見度: 10公里
多云层高于4000英尺

TAF: KMHK 220525Z 2206/2306 02010KT P6SM OVC018 FM221500 02006KT P6SM BKN035 FM222000 35006KT P6SM VCSH BKN030 FM230000 VRB04KT P6SM BKN040

超过4000个机场的气象观测和天气预报(METAR&TAF报告)。

可查询的气象台以黄色和红色小点在地图上表示。

将鼠标移到小点上方,可查看气象台名称。

然后点击查看天气观测和预报。

如需切换地图:点击带黑十字的绿色按钮放大地图;点击带横线的绿色按钮缩小地图;或者点击绿色箭头查看邻近地区的地图。


METAR-TAF: